Airport View

Enter AWOS ICAO identifier for current METAR.

ex. KFNL

KRBL 100354Z AUTO 16003KT 10SM CLR 31/14 A2981 RMK AO2 SLP088 T03110139

10 Jul 2020 04:11

Frequency: 120.775

Phone: 530-528-8030

Other Area AWOS: KRDD - KCIC - KO54 - KOVE

TAF KRBL 092323Z 1000/1024 19011KT P6SM SKC FM100400 25005KT P6SM SKC FM101300 35004KT P6SM SKC